Time,TemperatureF,DewpointF,PressureIn,WindDirection,WindDirectionDegrees,WindSpeedMPH,WindSpeedGustMPH,Humidity,HourlyPrecipIn,Conditions,Clouds,dailyrainin,SoftwareType,DateUTC
2013-05-04 00:00:00,46.9,42.3,29.83,East,96,17.0,19.0,84,0.00,,,0.00,Wunderground v.1.15,2013-05-04 04:00:00,
2013-05-04 00:10:00,46.6,42.0,29.83,ESE,102,17.0,21.0,84,0.00,,,0.00,Wunderground v.1.15,2013-05-04 04:10:00,
2013-05-04 00:20:00,46.1,41.5,29.83,ESE,119,19.0,20.0,84,0.00,,,0.00,Wunderground v.1.15,2013-05-04 04:20:00,
2013-05-04 00:30:00,45.6,41.4,29.83,ESE,105,20.0,21.0,85,0.00,,,0.00,Wunderground v.1.15,2013-05-04 04:30:00,
2013-05-04 00:40:00,45.2,41.3,29.82,ESE,111,18.0,18.0,86,0.00,,,0.00,Wunderground v.1.15,2013-05-04 04:40:00,
2013-05-04 00:50:00,44.9,41.3,29.82,East,101,18.0,18.0,87,0.00,,,0.00,Wunderground v.1.15,2013-05-04 04:50:00,
2013-05-04 01:00:00,44.6,41.0,29.81,ESE,107,20.0,24.0,87,0.00,,,0.00,Wunderground v.1.15,2013-05-04 05:00:00,
2013-05-04 01:10:00,44.2,40.6,29.82,ESE,103,21.0,21.0,87,0.00,,,0.00,Wunderground v.1.15,2013-05-04 05:10:00,
2013-05-04 01:20:00,43.7,40.4,29.81,East,101,19.0,29.0,88,0.00,,,0.00,Wunderground v.1.15,2013-05-04 05:20:00,
2013-05-04 01:30:00,43.3,40.3,29.81,East,101,22.0,22.0,89,0.00,,,0.00,Wunderground v.1.15,2013-05-04 05:30:00,
2013-05-04 01:40:00,43.0,40.3,29.81,ESE,113,20.0,28.0,90,0.00,,,0.00,Wunderground v.1.15,2013-05-04 05:40:00,
2013-05-04 01:50:00,42.8,40.1,29.81,ESE,117,19.0,19.0,90,0.00,,,0.00,Wunderground v.1.15,2013-05-04 05:50:00,
2013-05-04 02:00:00,42.4,40.0,29.81,ESE,109,19.0,28.0,91,0.00,,,0.00,Wunderground v.1.15,2013-05-04 06:00:00,
2013-05-04 02:10:00,42.2,39.5,29.81,SE,130,18.0,18.0,90,0.00,,,0.00,Wunderground v.1.15,2013-05-04 06:10:00,
2013-05-04 02:20:00,41.6,38.0,29.81,East,92,21.0,28.0,87,0.00,,,0.00,Wunderground v.1.15,2013-05-04 06:20:00,
2013-05-04 02:30:00,41.1,37.5,29.81,East,98,24.0,28.0,87,0.00,,,0.00,Wunderground v.1.15,2013-05-04 06:30:00,
2013-05-04 02:40:00,40.8,37.8,29.80,East,93,22.0,22.0,89,0.00,,,0.00,Wunderground v.1.15,2013-05-04 06:40:00,
2013-05-04 02:50:00,40.6,37.6,29.80,ESE,104,21.0,21.0,89,0.00,,,0.00,Wunderground v.1.15,2013-05-04 06:50:00,
2013-05-04 03:00:00,40.5,37.8,29.80,East,86,19.0,28.0,90,0.00,,,0.00,Wunderground v.1.15,2013-05-04 07:00:00,
2013-05-04 03:10:00,40.4,37.7,29.80,ESE,123,21.0,21.0,90,0.00,,,0.00,Wunderground v.1.15,2013-05-04 07:10:00,
2013-05-04 03:20:00,40.3,37.6,29.80,East,93,17.0,28.0,90,0.00,,,0.00,Wunderground v.1.15,2013-05-04 07:20:00,
2013-05-04 03:29:00,40.2,37.8,29.81,ESE,119,16.0,16.0,91,0.00,,,0.00,Wunderground v.1.15,2013-05-04 07:29:00,
2013-05-04 03:40:00,40.0,37.6,29.81,East,98,16.0,16.0,91,0.00,,,0.00,Wunderground v.1.15,2013-05-04 07:40:00,
2013-05-04 03:49:00,39.9,37.5,29.81,East,88,15.0,15.0,91,0.00,,,0.00,Wunderground v.1.15,2013-05-04 07:49:00,
2013-05-04 04:00:00,39.8,37.7,29.81,East,92,15.0,15.0,92,0.00,,,0.00,Wunderground v.1.15,2013-05-04 08:00:00,
2013-05-04 04:10:00,39.8,37.7,29.82,East,82,13.0,13.0,92,0.00,,,0.00,Wunderground v.1.15,2013-05-04 08:10:00,
2013-05-04 04:19:00,39.8,37.7,29.81,East,90,13.0,28.0,92,0.00,,,0.00,Wunderground v.1.15,2013-05-04 08:19:00,
2013-05-04 04:30:00,39.8,37.7,29.82,ESE,115,14.0,14.0,92,0.00,,,0.00,Wunderground v.1.15,2013-05-04 08:30:00,
2013-05-04 04:40:00,39.8,37.9,29.81,East,84,11.0,28.0,93,0.00,,,0.00,Wunderground v.1.15,2013-05-04 08:40:00,
2013-05-04 04:50:00,39.7,37.8,29.81,ESE,111,11.0,11.0,93,0.00,,,0.00,Wunderground v.1.15,2013-05-04 08:50:00,
2013-05-04 05:00:00,39.8,37.9,29.81,ESE,104,9.0,28.0,93,0.00,,,0.00,Wunderground v.1.15,2013-05-04 09:00:00,
2013-05-04 05:10:00,39.8,37.9,29.81,East,90,12.0,28.0,93,0.00,,,0.00,Wunderground v.1.15,2013-05-04 09:10:00,
2013-05-04 05:20:00,39.9,38.0,29.81,East,98,12.0,28.0,93,0.00,,,0.00,Wunderground v.1.15,2013-05-04 09:20:00,
2013-05-04 05:30:00,39.9,38.3,29.81,East,82,14.0,14.0,94,0.00,,,0.00,Wunderground v.1.15,2013-05-04 09:30:00,
2013-05-04 05:40:00,40.0,38.4,29.81,East,99,13.0,13.0,94,0.00,,,0.00,Wunderground v.1.15,2013-05-04 09:40:00,
2013-05-04 05:50:00,40.0,38.4,29.81,East,98,14.0,28.0,94,0.00,,,0.00,Wunderground v.1.15,2013-05-04 09:50:00,
2013-05-04 06:00:00,40.0,38.4,29.81,East,81,13.0,28.0,94,0.00,,,0.00,Wunderground v.1.15,2013-05-04 10:00:00,
2013-05-04 06:09:00,40.0,38.4,29.81,East,84,13.0,28.0,94,0.00,,,0.00,Wunderground v.1.15,2013-05-04 10:09:00,
2013-05-04 06:20:00,40.0,38.4,29.82,East,88,16.0,16.0,94,0.00,,,0.00,Wunderground v.1.15,2013-05-04 10:20:00,
2013-05-04 06:30:00,40.0,38.4,29.82,ESE,107,14.0,28.0,94,0.00,,,0.00,Wunderground v.1.15,2013-05-04 10:30:00,
2013-05-04 06:40:00,39.9,38.3,29.82,East,84,15.0,15.0,94,0.00,,,0.00,Wunderground v.1.15,2013-05-04 10:40:00,
2013-05-04 06:50:00,39.9,38.3,29.82,ESE,102,12.0,16.0,94,0.00,,,0.00,Wunderground v.1.15,2013-05-04 10:50:00,
2013-05-04 07:00:00,39.8,38.2,29.82,East,94,16.0,16.0,94,0.00,,,0.00,Wunderground v.1.15,2013-05-04 11:00:00,
2013-05-04 07:10:00,39.8,38.2,29.82,East,94,15.0,16.0,94,0.00,,,0.00,Wunderground v.1.15,2013-05-04 11:10:00,
2013-05-04 07:20:00,39.8,38.2,29.82,East,82,13.0,13.0,94,0.00,,,0.00,Wunderground v.1.15,2013-05-04 11:20:00,
2013-05-04 07:30:00,39.8,38.2,29.82,ESE,109,16.0,21.0,94,0.00,,,0.00,Wunderground v.1.15,2013-05-04 11:30:00,
2013-05-04 07:40:00,39.8,38.2,29.82,ESE,112,17.0,24.0,94,0.00,,,0.00,Wunderground v.1.15,2013-05-04 11:40:00,
2013-05-04 07:50:00,39.8,38.2,29.82,East,94,17.0,17.0,94,0.00,,,0.00,Wunderground v.1.15,2013-05-04 11:50:00,
2013-05-04 08:00:00,39.8,38.2,29.82,ESE,110,15.0,15.0,94,0.00,,,0.00,Wunderground v.1.15,2013-05-04 12:00:00,
2013-05-04 08:10:00,39.9,38.3,29.82,East,91,14.0,14.0,94,0.00,,,0.00,Wunderground v.1.15,2013-05-04 12:10:00,
2013-05-04 08:20:00,40.0,38.4,29.82,East,90,15.0,23.0,94,0.00,,,0.00,Wunderground v.1.15,2013-05-04 12:20:00,
2013-05-04 08:29:00,39.9,38.3,29.82,ESE,102,16.0,16.0,94,0.00,,,0.00,Wunderground v.1.15,2013-05-04 12:29:00,
2013-05-04 08:40:00,39.9,38.3,29.82,ESE,105,15.0,20.0,94,0.00,,,0.00,Wunderground v.1.15,2013-05-04 12:40:00,
2013-05-04 08:50:00,39.9,38.0,29.82,East,101,18.0,18.0,93,0.00,,,0.00,Wunderground v.1.15,2013-05-04 12:50:00,
2013-05-04 09:00:00,39.9,38.3,29.82,ESE,103,18.0,18.0,94,0.00,,,0.00,Wunderground v.1.15,2013-05-04 13:00:00,
2013-05-04 09:10:00,40.0,38.4,29.82,ESE,109,17.0,17.0,94,0.00,,,0.00,Wunderground v.1.15,2013-05-04 13:10:00,
2013-05-04 09:20:00,40.0,38.4,29.82,East,83,15.0,15.0,94,0.00,,,0.00,Wunderground v.1.15,2013-05-04 13:20:00,
2013-05-04 09:30:00,40.1,38.5,29.82,ESE,106,13.0,13.0,94,0.00,,,0.00,Wunderground v.1.15,2013-05-04 13:30:00,
2013-05-04 09:40:00,40.2,38.6,29.82,East,101,14.0,14.0,94,0.00,,,0.00,Wunderground v.1.15,2013-05-04 13:40:00,
2013-05-04 09:49:00,40.1,38.8,29.82,East,97,14.0,14.0,95,0.00,,,0.00,Wunderground v.1.15,2013-05-04 13:49:00,
2013-05-04 10:00:00,40.0,38.7,29.82,ESE,103,13.0,28.0,95,0.00,,,0.00,Wunderground v.1.15,2013-05-04 14:00:00,
2013-05-04 10:09:00,40.0,39.0,29.82,ENE,73,14.0,28.0,96,0.00,,,0.00,Wunderground v.1.15,2013-05-04 14:09:00,
2013-05-04 10:20:00,40.1,39.1,29.82,East,91,11.0,28.0,96,0.00,,,0.01,Wunderground v.1.15,2013-05-04 14:20:00,
2013-05-04 10:30:00,40.2,39.2,29.82,East,95,10.0,10.0,96,0.00,,,0.01,Wunderground v.1.15,2013-05-04 14:30:00,
2013-05-04 10:40:00,40.1,39.3,29.82,ESE,114,11.0,28.0,97,0.00,,,0.01,Wunderground v.1.15,2013-05-04 14:40:00,
2013-05-04 10:50:00,40.1,39.3,29.82,East,96,11.0,28.0,97,0.00,,,0.02,Wunderground v.1.15,2013-05-04 14:50:00,
2013-05-04 11:00:00,40.2,39.4,29.83,East,99,11.0,28.0,97,0.00,,,0.02,Wunderground v.1.15,2013-05-04 15:00:00,
2013-05-04 11:09:00,40.5,39.7,29.82,East,89,10.0,10.0,97,0.00,,,0.03,Wunderground v.1.15,2013-05-04 15:09:00,
2013-05-04 11:20:00,40.9,40.1,29.82,East,100,11.0,28.0,97,0.00,,,0.03,Wunderground v.1.15,2013-05-04 15:20:00,
2013-05-04 11:30:00,41.0,40.2,29.82,East,87,9.0,28.0,97,0.00,,,0.03,Wunderground v.1.15,2013-05-04 15:30:00,
2013-05-04 11:40:00,41.0,40.2,29.82,ESE,121,9.0,9.0,97,0.00,,,0.03,Wunderground v.1.15,2013-05-04 15:40:00,
2013-05-04 11:50:00,41.1,40.3,29.82,ESE,103,11.0,28.0,97,0.00,,,0.03,Wunderground v.1.15,2013-05-04 15:50:00,
2013-05-04 12:00:00,41.1,40.3,29.82,ESE,120,13.0,13.0,97,0.00,,,0.03,Wunderground v.1.15,2013-05-04 16:00:00,
2013-05-04 12:10:00,41.6,40.8,29.81,East,86,11.0,11.0,97,0.00,,,0.03,Wunderground v.1.15,2013-05-04 16:10:00,
2013-05-04 12:20:00,41.8,41.0,29.81,ESE,111,10.0,14.0,97,0.00,,,0.03,Wunderground v.1.15,2013-05-04 16:20:00,
2013-05-04 12:30:00,42.0,41.2,29.81,East,92,12.0,12.0,97,0.00,,,0.03,Wunderground v.1.15,2013-05-04 16:30:00,
2013-05-04 12:40:00,42.2,41.7,29.81,East,95,12.0,12.0,98,0.00,,,0.03,Wunderground v.1.15,2013-05-04 16:40:00,
2013-05-04 12:50:00,43.0,42.5,29.81,East,93,11.0,11.0,98,0.00,,,0.03,Wunderground v.1.15,2013-05-04 16:50:00,
2013-05-04 13:00:00,43.3,42.8,29.81,ESE,118,12.0,12.0,98,0.00,,,0.03,Wunderground v.1.15,2013-05-04 17:00:00,
2013-05-04 13:10:00,43.5,43.0,29.81,ESE,105,12.0,20.0,98,0.00,,,0.03,Wunderground v.1.15,2013-05-04 17:10:00,
2013-05-04 13:20:00,44.2,43.4,29.80,East,92,12.0,20.0,97,0.00,,,0.03,Wunderground v.1.15,2013-05-04 17:20:00,
2013-05-04 13:29:00,45.1,44.3,29.81,East,91,13.0,13.0,97,0.00,,,0.03,Wunderground v.1.15,2013-05-04 17:29:00,
2013-05-04 13:40:00,45.9,44.8,29.80,ESE,106,12.0,20.0,96,0.00,,,0.03,Wunderground v.1.15,2013-05-04 17:40:00,
2013-05-04 13:49:00,46.3,44.7,29.80,East,100,11.0,20.0,94,0.00,,,0.03,Wunderground v.1.15,2013-05-04 17:49:00,
2013-05-04 14:00:00,46.8,44.3,29.80,ESE,108,13.0,20.0,91,0.00,,,0.03,Wunderground v.1.15,2013-05-04 18:00:00,
2013-05-04 14:10:00,47.8,44.4,29.79,East,87,12.0,12.0,88,0.00,,,0.03,Wunderground v.1.15,2013-05-04 18:10:00,
2013-05-04 14:20:00,47.5,43.5,29.79,ESE,104,14.0,20.0,86,0.00,,,0.03,Wunderground v.1.15,2013-05-04 18:20:00,
2013-05-04 14:30:00,47.4,42.8,29.79,ESE,121,16.0,20.0,84,0.00,,,0.03,Wunderground v.1.15,2013-05-04 18:30:00,
2013-05-04 14:40:00,47.9,42.3,29.78,ESE,104,16.0,21.0,81,0.00,,,0.03,Wunderground v.1.15,2013-05-04 18:40:00,
2013-05-04 14:49:00,47.8,41.9,29.79,ENE,65,15.0,15.0,80,0.00,,,0.03,Wunderground v.1.15,2013-05-04 18:49:00,
2013-05-04 15:00:00,48.2,42.6,29.79,East,101,11.0,20.0,81,0.00,,,0.03,Wunderground v.1.15,2013-05-04 19:00:00,
2013-05-04 15:10:00,48.5,42.6,29.79,East,101,11.0,20.0,80,0.00,,,0.03,Wunderground v.1.15,2013-05-04 19:10:00,
2013-05-04 15:20:00,48.7,42.1,29.79,East,92,11.0,11.0,78,0.00,,,0.03,Wunderground v.1.15,2013-05-04 19:20:00,
2013-05-04 15:29:00,48.8,42.2,29.78,East,91,10.0,20.0,78,0.00,,,0.03,Wunderground v.1.15,2013-05-04 19:29:00,
2013-05-04 15:40:00,50.4,42.8,29.77,East,89,13.0,13.0,75,0.00,,,0.03,Wunderground v.1.15,2013-05-04 19:40:00,
2013-05-04 15:50:00,50.8,42.8,29.77,East,96,16.0,16.0,74,0.00,,,0.03,Wunderground v.1.15,2013-05-04 19:50:00,
2013-05-04 16:00:00,51.4,43.7,29.77,ESE,111,16.0,20.0,75,0.00,,,0.03,Wunderground v.1.15,2013-05-04 20:00:00,
2013-05-04 16:10:00,51.3,42.9,29.77,East,91,17.0,17.0,73,0.00,,,0.03,Wunderground v.1.15,2013-05-04 20:10:00,
2013-05-04 16:20:00,51.1,41.3,29.76,East,96,16.0,18.0,69,0.00,,,0.03,Wunderground v.1.15,2013-05-04 20:20:00,
2013-05-04 16:30:00,51.8,41.9,29.75,East,95,18.0,20.0,69,0.00,,,0.04,Wunderground v.1.15,2013-05-04 20:30:00,
2013-05-04 16:40:00,51.9,41.3,29.75,ESE,117,18.0,18.0,67,0.00,,,0.04,Wunderground v.1.15,2013-05-04 20:40:00,
2013-05-04 16:50:00,51.9,41.7,29.74,ESE,120,20.0,20.0,68,0.00,,,0.04,Wunderground v.1.15,2013-05-04 20:50:00,
2013-05-04 17:00:00,52.4,42.1,29.75,East,92,16.0,18.0,68,0.00,,,0.04,Wunderground v.1.15,2013-05-04 21:00:00,
2013-05-04 17:10:00,52.5,43.0,29.75,East,88,13.0,24.0,70,0.00,,,0.04,Wunderground v.1.15,2013-05-04 21:10:00,
2013-05-04 17:20:00,52.4,42.9,29.74,East,92,16.0,16.0,70,0.00,,,0.04,Wunderground v.1.15,2013-05-04 21:20:00,
2013-05-04 17:30:00,52.7,43.2,29.74,East,86,16.0,24.0,70,0.00,,,0.04,Wunderground v.1.15,2013-05-04 21:30:00,
2013-05-04 17:40:00,52.2,43.4,29.75,East,81,16.0,16.0,72,0.00,,,0.04,Wunderground v.1.15,2013-05-04 21:40:00,
2013-05-04 17:50:00,52.2,43.1,29.74,East,91,16.0,24.0,71,0.00,,,0.04,Wunderground v.1.15,2013-05-04 21:50:00,
2013-05-04 18:00:00,52.9,43.0,29.75,ESE,108,19.0,19.0,69,0.00,,,0.04,Wunderground v.1.15,2013-05-04 22:00:00,
2013-05-04 18:10:00,52.4,44.0,29.75,ESE,106,17.0,17.0,73,0.00,,,0.04,Wunderground v.1.15,2013-05-04 22:10:00,
2013-05-04 18:20:00,52.6,44.2,29.75,East,92,16.0,24.0,73,0.00,,,0.04,Wunderground v.1.15,2013-05-04 22:20:00,
2013-05-04 18:29:00,52.4,44.4,29.75,East,87,18.0,24.0,74,0.00,,,0.04,Wunderground v.1.15,2013-05-04 22:29:00,
2013-05-04 18:40:00,51.0,43.7,29.76,East,92,21.0,21.0,76,0.00,,,0.04,Wunderground v.1.15,2013-05-04 22:40:00,
2013-05-04 18:49:00,50.7,43.8,29.76,East,91,14.0,14.0,77,0.00,,,0.04,Wunderground v.1.15,2013-05-04 22:49:00,
2013-05-04 19:00:00,49.3,43.4,29.76,East,86,17.0,24.0,80,0.00,,,0.04,Wunderground v.1.15,2013-05-04 23:00:00,
2013-05-04 19:09:00,48.7,43.5,29.77,East,98,18.0,18.0,82,0.00,,,0.04,Wunderground v.1.15,2013-05-04 23:09:00,
2013-05-04 19:20:00,47.9,43.3,29.77,East,93,18.0,24.0,84,0.00,,,0.04,Wunderground v.1.15,2013-05-04 23:20:00,
2013-05-04 19:30:00,47.4,43.1,29.78,ESE,105,17.0,17.0,85,0.00,,,0.04,Wunderground v.1.15,2013-05-04 23:30:00,
2013-05-04 19:40:00,46.8,42.8,29.78,ESE,103,16.0,28.0,86,0.00,,,0.04,Wunderground v.1.15,2013-05-04 23:40:00,
2013-05-04 19:50:00,46.3,42.3,29.78,ESE,109,19.0,24.0,86,0.00,,,0.04,Wunderground v.1.15,2013-05-04 23:50:00,
2013-05-04 20:00:00,46.1,42.4,29.78,East,91,18.0,18.0,87,0.00,,,0.04,Wunderground v.1.15,2013-05-05 00:00:00,
2013-05-04 20:10:00,45.9,42.5,29.78,ESE,111,17.0,17.0,88,0.00,,,0.04,Wunderground v.1.15,2013-05-05 00:10:00,
2013-05-04 20:20:00,45.8,42.4,29.78,East,86,18.0,18.0,88,0.00,,,0.04,Wunderground v.1.15,2013-05-05 00:20:00,
2013-05-04 20:30:00,45.8,42.7,29.77,East,89,15.0,19.0,89,0.00,,,0.04,Wunderground v.1.15,2013-05-05 00:30:00,
2013-05-04 20:39:00,45.8,42.7,29.77,East,96,18.0,18.0,89,0.00,,,0.04,Wunderground v.1.15,2013-05-05 00:39:00,
2013-05-04 20:50:00,45.8,42.7,29.77,ESE,121,18.0,18.0,89,0.00,,,0.04,Wunderground v.1.15,2013-05-05 00:50:00,
2013-05-04 21:00:00,45.8,43.0,29.78,ESE,103,17.0,17.0,90,0.00,,,0.04,Wunderground v.1.15,2013-05-05 01:00:00,
2013-05-04 21:09:00,45.8,43.0,29.78,East,88,14.0,14.0,90,0.00,,,0.04,Wunderground v.1.15,2013-05-05 01:09:00,
2013-05-04 21:20:00,45.8,43.0,29.78,East,86,15.0,15.0,90,0.00,,,0.04,Wunderground v.1.15,2013-05-05 01:20:00,
2013-05-04 21:30:00,45.8,43.0,29.78,East,98,15.0,30.0,90,0.00,,,0.04,Wunderground v.1.15,2013-05-05 01:30:00,
2013-05-04 21:39:00,45.8,43.3,29.78,East,80,16.0,30.0,91,0.00,,,0.04,Wunderground v.1.15,2013-05-05 01:39:00,
2013-05-04 21:50:00,45.8,43.3,29.77,East,94,15.0,30.0,91,0.00,,,0.04,Wunderground v.1.15,2013-05-05 01:50:00,
2013-05-04 21:59:00,45.8,43.6,29.77,East,86,18.0,18.0,92,0.00,,,0.04,Wunderground v.1.15,2013-05-05 01:59:00,
2013-05-04 22:10:00,45.5,43.6,29.78,ESE,102,16.0,30.0,93,0.00,,,0.04,Wunderground v.1.15,2013-05-05 02:10:00,
2013-05-04 22:20:00,45.4,43.8,29.78,East,95,18.0,30.0,94,0.00,,,0.04,Wunderground v.1.15,2013-05-05 02:20:00,
2013-05-04 22:29:00,45.3,44.0,29.78,East,89,18.0,18.0,95,0.00,,,0.05,Wunderground v.1.15,2013-05-05 02:29:00,
2013-05-04 22:40:00,45.1,43.8,29.79,East,97,15.0,15.0,95,0.08,,,0.06,Wunderground v.1.15,2013-05-05 02:40:00,
2013-05-04 22:50:00,45.2,44.1,29.79,East,93,17.0,30.0,96,0.06,,,0.07,Wunderground v.1.15,2013-05-05 02:50:00,
2013-05-04 23:00:00,45.2,44.1,29.79,ESE,107,17.0,17.0,96,0.00,,,0.07,Wunderground v.1.15,2013-05-05 03:00:00,
2013-05-04 23:10:00,45.2,44.4,29.78,East,101,16.0,30.0,97,0.00,,,0.07,Wunderground v.1.15,2013-05-05 03:10:00,
2013-05-04 23:20:00,45.2,44.4,29.78,East,93,15.0,30.0,97,0.00,,,0.08,Wunderground v.1.15,2013-05-05 03:20:00,
2013-05-04 23:30:00,45.2,44.4,29.78,ESE,111,20.0,30.0,97,0.00,,,0.08,Wunderground v.1.15,2013-05-05 03:30:00,
2013-05-04 23:39:00,45.1,44.3,29.78,ESE,113,22.0,22.0,97,0.10,,,0.10,Wunderground v.1.15,2013-05-05 03:39:00,
2013-05-04 23:50:00,45.0,44.2,29.77,ESE,103,18.0,30.0,97,0.08,,,0.11,Wunderground v.1.15,2013-05-05 03:50:00,